createdAt,value
2023-02-07T00:00:17.580Z,3.45
2023-02-07T00:02:44.962Z,1.98
2023-02-07T00:05:11.826Z,2.20
2023-02-07T00:07:38.450Z,1.90
2023-02-07T00:10:06.100Z,2.28
2023-02-07T00:12:32.490Z,1.80
2023-02-07T00:14:59.438Z,2.80
2023-02-07T00:17:25.832Z,2.35
2023-02-07T00:19:52.258Z,2.15
2023-02-07T00:22:18.647Z,2.00
2023-02-07T00:24:45.174Z,2.08
2023-02-07T00:27:11.595Z,2.10
2023-02-07T00:29:37.961Z,2.00
2023-02-07T00:32:04.671Z,1.83
2023-02-07T00:34:31.651Z,2.00
2023-02-07T00:36:58.104Z,2.65
2023-02-07T00:39:24.465Z,1.90
2023-02-07T00:41:50.868Z,1.67
2023-02-07T00:44:17.240Z,2.35
2023-02-07T00:46:44.905Z,1.95
2023-02-07T00:49:11.773Z,2.58
2023-02-07T00:51:38.228Z,2.28
2023-02-07T00:54:04.955Z,2.00
2023-02-07T00:56:32.146Z,2.08
2023-02-07T00:58:59.208Z,2.03
2023-02-07T01:01:27.366Z,1.95
2023-02-07T01:03:54.429Z,2.30
2023-02-07T01:06:21.252Z,2.50
2023-02-07T01:08:48.255Z,2.10
2023-02-07T01:11:16.529Z,1.88
2023-02-07T01:13:44.109Z,2.20
2023-02-07T01:16:34.342Z,1.88
2023-02-07T01:19:03.743Z,1.63
2023-02-07T01:21:30.266Z,2.08
2023-02-07T01:23:56.925Z,1.90
2023-02-07T01:26:24.888Z,1.80
2023-02-07T01:28:51.309Z,2.78
2023-02-07T01:31:17.806Z,2.38
2023-02-07T01:33:44.216Z,2.33
2023-02-07T01:36:13.389Z,2.15
2023-02-07T01:38:40.222Z,2.13
2023-02-07T01:41:07.061Z,2.50
2023-02-07T01:43:33.498Z,2.35
2023-02-07T01:45:59.907Z,2.13
2023-02-07T01:48:35.599Z,3.08
2023-02-07T01:51:04.981Z,2.58
2023-02-07T01:53:33.526Z,2.78
2023-02-07T01:56:03.299Z,2.78
2023-02-07T01:58:29.714Z,2.42
2023-02-07T02:00:56.081Z,3.42
2023-02-07T02:03:22.526Z,2.97
2023-02-07T02:05:50.066Z,2.15
2023-02-07T02:08:16.414Z,2.55
2023-02-07T02:11:21.598Z,2.42
2023-02-07T02:13:53.549Z,2.70
2023-02-07T02:16:44.967Z,2.25
2023-02-07T02:19:27.007Z,4.07
2023-02-07T02:22:12.021Z,2.30
2023-02-07T02:24:53.238Z,2.72
2023-02-07T02:27:38.290Z,3.17
2023-02-07T02:30:34.571Z,3.20
2023-02-07T02:33:09.888Z,3.13
2023-02-07T02:36:01.229Z,3.55
2023-02-07T02:38:54.087Z,2.97
2023-02-07T02:41:39.797Z,2.83
2023-02-07T02:44:13.501Z,4.80
2023-02-07T02:46:41.606Z,3.30
2023-02-07T02:49:10.538Z,3.50
2023-02-07T02:51:37.333Z,3.85
2023-02-07T02:54:03.776Z,4.28
2023-02-07T02:56:51.940Z,3.55
2023-02-07T02:59:40.604Z,4.70
2023-02-07T03:02:22.412Z,4.15
2023-02-07T03:05:04.071Z,3.75
2023-02-07T03:07:53.378Z,4.07
2023-02-07T03:10:31.731Z,4.05
2023-02-07T03:13:16.655Z,4.78
2023-02-07T03:16:13.591Z,4.65
2023-02-07T03:19:01.247Z,4.32
2023-02-07T03:21:31.502Z,4.63
2023-02-07T03:24:01.286Z,4.07
2023-02-07T03:26:28.354Z,4.00
2023-02-07T03:28:56.709Z,5.35
2023-02-07T03:31:24.448Z,4.18
2023-02-07T03:33:54.769Z,4.63
2023-02-07T03:37:04.083Z,3.72
2023-02-07T03:39:30.496Z,5.10
2023-02-07T03:41:59.884Z,4.43
2023-02-07T03:44:27.726Z,4.68
2023-02-07T03:46:54.622Z,4.43
2023-02-07T03:49:21.040Z,6.63
2023-02-07T03:51:48.032Z,4.80
2023-02-07T03:54:14.395Z,4.95
2023-02-07T03:56:40.711Z,6.38
2023-02-07T03:59:08.236Z,6.03
2023-02-07T04:01:40.630Z,7.60
2023-02-07T04:04:07.081Z,5.88
2023-02-07T04:06:33.500Z,6.75
2023-02-07T04:08:59.900Z,6.18
2023-02-07T04:11:26.277Z,5.80
2023-02-07T04:13:52.618Z,5.95
2023-02-07T04:16:19.044Z,6.10
2023-02-07T04:18:45.435Z,6.85
2023-02-07T04:21:11.828Z,5.85
2023-02-07T04:23:38.378Z,5.82
2023-02-07T04:26:04.864Z,6.93
2023-02-07T04:28:31.436Z,6.22
2023-02-07T04:30:57.822Z,6.90
2023-02-07T04:33:24.239Z,6.95
2023-02-07T04:36:01.740Z,7.38
2023-02-07T04:38:29.201Z,6.32
2023-02-07T04:41:04.430Z,7.20
2023-02-07T04:43:32.264Z,7.82
2023-02-07T04:45:58.689Z,8.52
2023-02-07T04:48:25.246Z,7.05
2023-02-07T04:50:51.616Z,9.85
2023-02-07T04:53:17.993Z,7.53
2023-02-07T04:55:48.369Z,7.57
2023-02-07T04:58:14.847Z,9.18
2023-02-07T05:00:41.508Z,9.27
2023-02-07T05:03:07.844Z,7.90
2023-02-07T05:05:34.217Z,8.32
2023-02-07T05:08:00.557Z,7.88
2023-02-07T05:10:26.917Z,8.88
2023-02-07T05:12:53.292Z,9.43
2023-02-07T05:15:19.613Z,8.63
2023-02-07T05:17:46.214Z,8.27
2023-02-07T05:20:12.733Z,9.15
2023-02-07T05:22:39.125Z,9.13
2023-02-07T05:25:05.799Z,8.38
2023-02-07T05:27:32.166Z,8.88
2023-02-07T05:29:59.426Z,9.18
2023-02-07T05:32:44.417Z,9.63
2023-02-07T05:35:11.837Z,9.32
2023-02-07T05:37:38.221Z,8.65
2023-02-07T05:40:04.884Z,9.73
2023-02-07T05:42:31.439Z,9.80
2023-02-07T05:44:57.888Z,8.98
2023-02-07T05:47:24.326Z,14.55
2023-02-07T05:49:51.107Z,10.18
2023-02-07T05:52:17.601Z,9.65
2023-02-07T05:54:44.019Z,11.80
2023-02-07T05:57:10.353Z,9.57
2023-02-07T05:59:36.709Z,10.55
2023-02-07T06:02:03.044Z,10.10
2023-02-07T06:04:29.439Z,10.60
2023-02-07T06:06:55.769Z,10.45
2023-02-07T06:09:22.472Z,12.40
2023-02-07T06:11:48.956Z,10.93
2023-02-07T06:14:15.360Z,10.95
2023-02-07T06:16:41.780Z,11.57
2023-02-07T06:19:08.235Z,10.75
2023-02-07T06:21:45.785Z,13.40
2023-02-07T06:24:13.434Z,7.60
2023-02-07T06:26:39.783Z,17.80
2023-02-07T06:29:06.150Z,21.17
2023-02-07T06:31:32.581Z,28.92
2023-02-07T06:33:59.083Z,17.80
2023-02-07T06:36:25.401Z,15.80
2023-02-07T06:38:55.337Z,12.35
2023-02-07T06:41:22.460Z,10.48
2023-02-07T06:43:48.864Z,11.98
2023-02-07T06:46:15.416Z,11.23
2023-02-07T06:48:41.833Z,12.15
2023-02-07T06:51:08.186Z,12.57
2023-02-07T06:53:34.521Z,11.60
2023-02-07T06:56:00.958Z,11.55
2023-02-07T06:58:27.350Z,12.63
2023-02-07T07:00:53.725Z,17.05
2023-02-07T07:03:20.196Z,12.48
2023-02-07T07:05:46.691Z,12.32
2023-02-07T07:08:15.404Z,12.05
2023-02-07T07:10:41.812Z,13.77
2023-02-07T07:13:08.256Z,13.38
2023-02-07T07:15:34.660Z,11.82
2023-02-07T07:18:01.102Z,12.85
2023-02-07T07:20:27.556Z,13.90
2023-02-07T07:22:53.870Z,14.45
2023-02-07T07:25:20.386Z,13.93
2023-02-07T07:27:46.850Z,14.75
2023-02-07T07:30:13.664Z,15.57
2023-02-07T07:32:40.602Z,13.48
2023-02-07T07:35:07.614Z,14.82
2023-02-07T07:37:33.976Z,17.25
2023-02-07T07:40:00.360Z,14.82
2023-02-07T07:42:26.838Z,16.92
2023-02-07T07:44:53.203Z,17.20
2023-02-07T07:47:19.589Z,19.48
2023-02-07T07:49:46.900Z,17.88
2023-02-07T07:52:13.623Z,15.93
2023-02-07T07:54:40.073Z,25.60
2023-02-07T07:57:06.485Z,38.78
2023-02-07T07:59:32.921Z,20.80
2023-02-07T08:01:59.361Z,18.15
2023-02-07T08:04:25.837Z,14.00
2023-02-07T08:06:52.264Z,18.30
2023-02-07T08:09:18.632Z,17.67
2023-02-07T08:11:45.451Z,14.10
2023-02-07T08:14:11.810Z,17.98
2023-02-07T08:16:38.284Z,16.05
2023-02-07T08:19:04.684Z,15.48
2023-02-07T08:21:31.977Z,15.57
2023-02-07T08:23:58.430Z,15.32
2023-02-07T08:26:24.802Z,14.05
2023-02-07T08:28:52.354Z,14.82
2023-02-07T08:31:19.123Z,13.65
2023-02-07T08:33:45.608Z,15.02
2023-02-07T08:36:12.863Z,14.25
2023-02-07T08:38:39.335Z,16.63
2023-02-07T08:41:05.763Z,15.38
2023-02-07T08:43:32.199Z,15.45
2023-02-07T08:46:00.541Z,14.70
2023-02-07T08:48:27.053Z,14.68
2023-02-07T08:50:53.412Z,15.02
2023-02-07T08:53:19.748Z,15.05
2023-02-07T08:55:46.353Z,15.00
2023-02-07T08:58:12.720Z,15.63
2023-02-07T09:00:39.876Z,15.93
2023-02-07T09:03:06.373Z,14.73
2023-02-07T09:05:33.568Z,13.75
2023-02-07T09:08:00.912Z,13.85
2023-02-07T09:10:27.325Z,14.23
2023-02-07T09:12:53.718Z,13.73
2023-02-07T09:15:20.408Z,15.75
2023-02-07T09:17:46.845Z,16.38
2023-02-07T09:20:13.282Z,16.52
2023-02-07T09:22:58.366Z,14.82
2023-02-07T09:25:24.761Z,14.68
2023-02-07T09:27:51.360Z,18.95
2023-02-07T09:30:18.011Z,15.45
2023-02-07T09:32:44.551Z,14.48
2023-02-07T09:35:10.892Z,15.90
2023-02-07T09:37:48.793Z,14.50
2023-02-07T09:40:19.055Z,16.17
2023-02-07T09:42:52.256Z,15.35
2023-02-07T09:45:24.699Z,15.55
2023-02-07T09:47:53.945Z,15.95
2023-02-07T09:50:23.570Z,14.98
2023-02-07T09:52:59.906Z,15.73
2023-02-07T09:55:42.989Z,14.38
2023-02-07T09:58:14.096Z,15.35
2023-02-07T10:00:42.462Z,14.88
2023-02-07T10:03:23.154Z,14.27
2023-02-07T10:06:17.524Z,12.80
2023-02-07T10:08:47.424Z,14.23
2023-02-07T10:11:23.168Z,13.73
2023-02-07T10:13:58.521Z,15.15
2023-02-07T10:16:46.608Z,16.05
2023-02-07T10:19:44.514Z,15.55
2023-02-07T10:22:27.243Z,14.25
2023-02-07T10:25:18.202Z,15.27
2023-02-07T10:27:58.455Z,13.23
2023-02-07T10:30:27.899Z,13.68
2023-02-07T10:33:00.224Z,13.48
2023-02-07T10:35:36.390Z,12.88
2023-02-07T10:38:03.856Z,12.20
2023-02-07T10:40:42.708Z,14.25
2023-02-07T10:43:19.678Z,15.93
2023-02-07T10:45:49.851Z,17.83
2023-02-07T10:48:19.696Z,13.38
2023-02-07T10:50:46.340Z,14.32
2023-02-07T10:53:54.848Z,17.13
2023-02-07T10:56:27.667Z,13.05
2023-02-07T10:58:56.134Z,15.07
2023-02-07T11:01:25.728Z,13.63
2023-02-07T11:03:53.093Z,12.82
2023-02-07T11:06:29.424Z,12.43
2023-02-07T11:09:11.925Z,14.10
2023-02-07T11:11:40.587Z,19.33
2023-02-07T11:14:08.862Z,14.20
2023-02-07T11:16:35.451Z,12.20
2023-02-07T11:19:06.439Z,14.63
2023-02-07T11:21:39.859Z,14.95
2023-02-07T11:24:07.682Z,15.25
2023-02-07T11:26:35.780Z,14.07
2023-02-07T11:29:22.697Z,13.32
2023-02-07T11:31:49.957Z,12.35
2023-02-07T11:34:53.258Z,14.18
2023-02-07T11:37:23.785Z,13.60
2023-02-07T11:39:51.296Z,13.50
2023-02-07T11:42:20.112Z,12.23
2023-02-07T11:44:47.961Z,12.40
2023-02-07T11:47:18.618Z,11.88
2023-02-07T11:49:52.524Z,11.57
2023-02-07T11:52:19.178Z,10.75
2023-02-07T11:54:54.753Z,12.52
2023-02-07T11:57:22.487Z,14.40
2023-02-07T12:00:08.271Z,15.27
2023-02-07T12:02:35.525Z,11.07
2023-02-07T12:05:22.638Z,14.07
2023-02-07T12:07:53.530Z,11.00
2023-02-07T12:10:22.912Z,12.68
2023-02-07T12:13:00.389Z,11.82
2023-02-07T12:15:33.941Z,12.88
2023-02-07T12:18:07.669Z,14.75
2023-02-07T12:20:40.365Z,12.20
2023-02-07T12:23:41.764Z,12.43
2023-02-07T12:26:15.114Z,13.95
2023-02-07T12:29:12.173Z,12.20
2023-02-07T12:31:51.799Z,14.65
2023-02-07T12:34:50.780Z,11.57
2023-02-07T12:37:37.465Z,12.10
2023-02-07T12:40:11.083Z,13.75
2023-02-07T12:42:43.377Z,12.18
2023-02-07T12:45:16.996Z,12.32
2023-02-07T12:48:01.984Z,10.63
2023-02-07T12:50:37.260Z,12.45
2023-02-07T12:53:28.056Z,11.88
2023-02-07T12:56:09.631Z,12.15
2023-02-07T12:58:35.972Z,12.38
2023-02-07T13:01:28.206Z,10.15
2023-02-07T13:04:09.509Z,12.95
2023-02-07T13:07:06.520Z,11.40
2023-02-07T13:09:50.369Z,13.02
2023-02-07T13:12:26.109Z,11.35
2023-02-07T13:15:30.467Z,10.80
2023-02-07T13:18:13.355Z,12.32
2023-02-07T13:21:03.653Z,13.00
2023-02-07T13:23:32.090Z,9.90
2023-02-07T13:26:02.780Z,10.35
2023-02-07T13:28:38.712Z,11.02
2023-02-07T13:31:06.658Z,17.90
2023-02-07T13:33:38.060Z,11.35
2023-02-07T13:36:37.672Z,13.25
2023-02-07T13:39:19.991Z,11.65
2023-02-07T13:41:53.049Z,11.70
2023-02-07T13:44:36.554Z,11.48
2023-02-07T13:47:11.612Z,15.63
2023-02-07T13:50:13.888Z,12.02
2023-02-07T13:52:49.033Z,12.02
2023-02-07T13:55:39.910Z,11.35
2023-02-07T13:58:53.400Z,11.63
2023-02-07T14:01:32.322Z,12.70
2023-02-07T14:04:12.404Z,12.02
2023-02-07T14:06:40.816Z,11.25
2023-02-07T14:09:18.888Z,12.48
2023-02-07T14:11:50.395Z,9.45
2023-02-07T14:14:28.053Z,10.88
2023-02-07T14:17:03.207Z,11.77
2023-02-07T14:19:48.585Z,9.50
2023-02-07T14:22:42.083Z,10.98
2023-02-07T14:25:08.519Z,10.73
2023-02-07T14:27:42.911Z,12.40
2023-02-07T14:30:13.546Z,11.00
2023-02-07T14:32:46.062Z,11.07
2023-02-07T14:35:19.390Z,10.55
2023-02-07T14:37:56.471Z,12.52
2023-02-07T14:40:37.852Z,13.60
2023-02-07T14:43:17.247Z,10.65
2023-02-07T14:45:52.657Z,10.32
2023-02-07T14:48:31.263Z,12.18
2023-02-07T14:50:57.639Z,12.93
2023-02-07T14:53:24.190Z,10.18
2023-02-07T14:55:55.050Z,10.60
2023-02-07T14:58:42.827Z,10.80
2023-02-07T15:01:14.027Z,12.02
2023-02-07T15:03:40.451Z,10.27
2023-02-07T15:06:31.937Z,9.43
2023-02-07T15:09:00.474Z,10.50
2023-02-07T15:11:28.425Z,11.82
2023-02-07T15:13:57.798Z,9.15
2023-02-07T15:16:24.099Z,9.75
2023-02-07T15:18:57.916Z,11.13
2023-02-07T15:21:32.275Z,10.27
2023-02-07T15:24:04.385Z,9.85
2023-02-07T15:26:31.394Z,10.60
2023-02-07T15:29:05.534Z,8.88
2023-02-07T15:34:05.884Z,9.32
2023-02-07T15:36:35.186Z,11.88
2023-02-07T15:39:05.072Z,11.02
2023-02-07T15:41:31.697Z,8.02
2023-02-07T15:44:03.517Z,7.57
2023-02-07T15:46:51.637Z,9.75
2023-02-07T15:49:32.429Z,9.63
2023-02-07T15:52:12.245Z,8.20
2023-02-07T15:54:40.301Z,7.72
2023-02-07T15:57:12.423Z,8.80
2023-02-07T15:59:41.013Z,12.95
2023-02-07T16:02:19.676Z,10.80
2023-02-07T16:04:46.088Z,8.35
2023-02-07T16:07:13.385Z,8.68
2023-02-07T16:09:43.168Z,9.40
2023-02-07T16:12:45.675Z,8.70
2023-02-07T16:15:26.510Z,8.63
2023-02-07T16:17:53.106Z,9.18
2023-02-07T16:20:19.571Z,8.95
2023-02-07T16:22:46.559Z,9.10
2023-02-07T16:25:19.272Z,9.48
2023-02-07T16:27:47.571Z,9.63
2023-02-07T16:30:19.887Z,6.85
2023-02-07T16:32:46.557Z,8.30
2023-02-07T16:35:18.137Z,10.13
2023-02-07T16:37:44.659Z,9.40
2023-02-07T16:40:12.494Z,9.68
2023-02-07T16:42:41.104Z,10.88
2023-02-07T16:45:15.625Z,7.32
2023-02-07T16:47:42.012Z,7.57
2023-02-07T16:50:17.190Z,8.25
2023-02-07T16:52:43.599Z,8.00
2023-02-07T16:55:10.093Z,7.05
2023-02-07T16:57:38.104Z,7.57
2023-02-07T17:00:06.462Z,7.03
2023-02-07T17:02:32.912Z,9.07
2023-02-07T17:04:59.241Z,9.52
2023-02-07T17:07:25.639Z,8.32
2023-02-07T17:09:52.130Z,9.55
2023-02-07T17:12:18.492Z,8.27
2023-02-07T17:14:44.973Z,7.57
2023-02-07T17:17:12.324Z,8.02
2023-02-07T17:19:38.671Z,7.30
2023-02-07T17:22:05.057Z,8.98
2023-02-07T17:24:31.766Z,7.57
2023-02-07T17:26:58.391Z,8.02
2023-02-07T17:29:25.055Z,7.30
2023-02-07T17:31:51.472Z,7.38
2023-02-07T17:34:17.824Z,6.72
2023-02-07T17:36:47.433Z,6.75
2023-02-07T17:39:14.796Z,7.00
2023-02-07T17:41:41.192Z,6.28
2023-02-07T17:44:07.823Z,7.35
2023-02-07T17:46:34.250Z,6.43
2023-02-07T17:49:01.291Z,7.55
2023-02-07T17:51:28.694Z,9.98
2023-02-07T17:53:55.902Z,8.90
2023-02-07T17:56:29.882Z,7.38
2023-02-07T18:01:23.945Z,7.97
2023-02-07T18:03:52.239Z,8.95
2023-02-07T18:06:20.327Z,7.15
2023-02-07T18:08:46.885Z,7.88
2023-02-07T18:11:14.192Z,11.25
2023-02-07T18:13:45.970Z,9.23
2023-02-07T18:16:21.973Z,8.93
2023-02-07T18:18:49.850Z,9.35
2023-02-07T18:21:16.572Z,9.90
2023-02-07T18:23:43.125Z,8.75
2023-02-07T18:26:11.494Z,7.60
2023-02-07T18:28:38.218Z,8.48
2023-02-07T18:31:11.886Z,7.93
2023-02-07T18:33:38.352Z,16.33
2023-02-07T18:36:05.224Z,8.82
2023-02-07T18:38:31.710Z,6.32
2023-02-07T18:40:58.280Z,7.60
2023-02-07T18:43:24.702Z,7.30
2023-02-07T18:45:51.150Z,6.53
2023-02-07T18:48:17.493Z,6.03
2023-02-07T18:50:44.607Z,6.68
2023-02-07T18:53:12.320Z,5.70
2023-02-07T18:55:38.706Z,7.90
2023-02-07T18:58:05.252Z,6.75
2023-02-07T19:00:31.625Z,6.40
2023-02-07T19:02:58.048Z,5.70
2023-02-07T19:05:24.423Z,7.50
2023-02-07T19:07:50.817Z,7.03
2023-02-07T19:10:17.246Z,7.40
2023-02-07T19:12:43.653Z,8.82
2023-02-07T19:15:10.250Z,9.10
2023-02-07T19:17:36.699Z,7.32
2023-02-07T19:20:03.331Z,7.55
2023-02-07T19:22:35.819Z,8.93
2023-02-07T19:25:03.565Z,9.15
2023-02-07T19:27:29.921Z,9.40
2023-02-07T19:29:56.329Z,8.95
2023-02-07T19:32:22.682Z,8.45
2023-02-07T19:34:49.986Z,10.63
2023-02-07T19:37:18.153Z,8.63
2023-02-07T19:39:46.082Z,7.65
2023-02-07T19:42:12.505Z,8.52
2023-02-07T19:44:38.891Z,9.65
2023-02-07T19:47:05.315Z,11.65
2023-02-07T19:49:31.713Z,12.75
2023-02-07T19:51:59.388Z,10.85
2023-02-07T19:54:25.762Z,10.77
2023-02-07T19:56:52.102Z,9.63
2023-02-07T19:59:18.880Z,12.90
2023-02-07T20:01:45.424Z,10.35
2023-02-07T20:04:12.064Z,10.38
2023-02-07T20:06:38.803Z,11.80
2023-02-07T20:09:06.600Z,11.00
2023-02-07T20:11:33.335Z,13.65
2023-02-07T20:14:02.900Z,11.32
2023-02-07T20:16:35.861Z,14.90
2023-02-07T20:19:05.228Z,12.52
2023-02-07T20:21:33.491Z,13.98
2023-02-07T20:24:00.225Z,10.48
2023-02-07T20:26:30.448Z,12.48
2023-02-07T20:29:01.902Z,11.80
2023-02-07T20:31:30.782Z,10.02
2023-02-07T20:33:57.732Z,12.32
2023-02-07T20:36:25.156Z,10.82
2023-02-07T20:38:52.046Z,13.23
2023-02-07T20:41:35.958Z,12.32
2023-02-07T20:44:05.371Z,11.07
2023-02-07T20:46:34.133Z,10.52
2023-02-07T20:49:03.142Z,10.45
2023-02-07T20:51:30.092Z,10.15
2023-02-07T20:53:58.823Z,10.73
2023-02-07T20:56:26.275Z,13.13
2023-02-07T20:58:54.472Z,13.15
2023-02-07T21:01:23.096Z,11.57
2023-02-07T21:03:51.013Z,13.18
2023-02-07T21:06:17.844Z,11.45
2023-02-07T21:08:44.380Z,9.32
2023-02-07T21:11:10.963Z,10.77
2023-02-07T21:13:38.287Z,10.93
2023-02-07T21:16:06.369Z,11.55
2023-02-07T21:18:33.948Z,10.43
2023-02-07T21:21:00.586Z,12.38
2023-02-07T21:23:27.168Z,12.60
2023-02-07T21:25:53.888Z,13.15
2023-02-07T21:28:20.510Z,11.05
2023-02-07T21:30:47.020Z,11.38
2023-02-07T21:33:13.690Z,13.13
2023-02-07T21:35:40.058Z,13.15
2023-02-07T21:38:06.945Z,10.93
2023-02-07T21:40:33.373Z,10.60
2023-02-07T21:42:59.716Z,13.57
2023-02-07T21:45:26.154Z,18.48
2023-02-07T21:47:52.562Z,12.35
2023-02-07T21:50:18.919Z,12.48
2023-02-07T21:52:45.350Z,12.90
2023-02-07T21:55:11.805Z,10.38
2023-02-07T21:57:38.204Z,11.50
2023-02-07T22:00:08.012Z,11.32
2023-02-07T22:02:35.106Z,13.32
2023-02-07T22:05:01.630Z,14.05
2023-02-07T22:07:28.044Z,11.63
2023-02-07T22:09:54.852Z,12.27
2023-02-07T22:12:21.397Z,11.55
2023-02-07T22:14:47.897Z,9.68
2023-02-07T22:17:23.610Z,11.02
2023-02-07T22:19:51.500Z,10.18
2023-02-07T22:22:18.606Z,9.15
2023-02-07T22:24:45.444Z,10.50
2023-02-07T22:27:12.381Z,10.45
2023-02-07T22:29:41.263Z,11.88
2023-02-07T22:32:09.983Z,12.70
2023-02-07T22:34:37.462Z,10.48
2023-02-07T22:37:03.974Z,12.80
2023-02-07T22:39:30.351Z,11.15
2023-02-07T22:41:57.097Z,11.80
2023-02-07T22:44:24.862Z,9.90
2023-02-07T22:46:51.248Z,12.45
2023-02-07T22:49:17.576Z,12.75
2023-02-07T22:51:46.043Z,13.20
2023-02-07T22:54:19.265Z,11.05
2023-02-07T22:56:46.179Z,11.40
2023-02-07T22:59:12.847Z,10.27
2023-02-07T23:01:40.829Z,9.32
2023-02-07T23:04:11.943Z,8.73
2023-02-07T23:06:38.442Z,8.32
2023-02-07T23:09:05.351Z,7.10
2023-02-07T23:11:31.978Z,7.10
2023-02-07T23:13:58.417Z,9.02
2023-02-07T23:16:26.326Z,9.27
2023-02-07T23:18:57.561Z,8.30
2023-02-07T23:21:26.054Z,7.35
2023-02-07T23:23:52.904Z,10.10
2023-02-07T23:26:22.257Z,9.35
2023-02-07T23:28:49.106Z,7.03
2023-02-07T23:31:18.259Z,7.95
2023-02-07T23:33:44.686Z,8.65
2023-02-07T23:36:12.209Z,10.10
2023-02-07T23:38:39.028Z,10.60
2023-02-07T23:41:13.376Z,11.98
2023-02-07T23:43:42.757Z,8.65
2023-02-07T23:46:09.492Z,8.98
2023-02-07T23:48:38.632Z,9.48
2023-02-07T23:51:07.814Z,10.82
2023-02-07T23:53:37.432Z,8.63
2023-02-07T23:56:12.418Z,8.68
2023-02-07T23:58:49.864Z,7.85
